createdAt,value
2022-12-04T12:48:17.852Z,37.81
2022-12-04T12:51:28.444Z,38.12
2022-12-04T12:54:09.294Z,38.50
2022-12-04T12:56:54.171Z,38.39
2022-12-04T12:59:39.091Z,38.99
2022-12-04T13:02:24.422Z,38.60
2022-12-04T13:05:09.950Z,38.72
2022-12-04T13:07:55.358Z,39.04
2022-12-04T13:10:41.134Z,39.17
2022-12-04T13:13:26.308Z,39.78
2022-12-04T13:16:11.627Z,39.03
2022-12-04T13:18:56.925Z,39.28
2022-12-04T13:21:41.910Z,39.50
2022-12-04T13:24:26.661Z,40.06
2022-12-04T13:27:11.560Z,39.87
2022-12-04T13:29:56.829Z,40.25
2022-12-04T13:32:41.958Z,40.50
2022-12-04T13:35:26.865Z,40.73
2022-12-04T13:38:11.796Z,40.36
2022-12-04T13:40:56.596Z,40.61
2022-12-04T13:43:41.606Z,40.03
2022-12-04T13:46:26.469Z,41.08
2022-12-04T13:49:11.425Z,41.58
2022-12-04T13:51:57.226Z,41.55
2022-12-04T13:54:42.472Z,41.59
2022-12-04T13:57:27.367Z,41.71
2022-12-04T14:00:12.267Z,41.55
2022-12-04T14:02:57.244Z,42.23
2022-12-04T14:05:42.153Z,41.85
2022-12-04T14:08:27.935Z,42.24
2022-12-04T14:11:12.822Z,41.57
2022-12-04T14:13:58.690Z,42.53
2022-12-04T14:16:46.271Z,42.41
2022-12-04T14:19:31.124Z,42.06
2022-12-04T14:22:16.059Z,42.25
2022-12-04T14:25:01.073Z,42.25
2022-12-04T14:27:45.942Z,42.96
2022-12-04T14:30:32.455Z,42.56
2022-12-04T14:33:17.793Z,43.29
2022-12-04T14:36:02.710Z,43.43
2022-12-04T14:38:47.755Z,43.67
2022-12-04T14:41:33.565Z,43.65
2022-12-04T14:44:19.086Z,43.66
2022-12-04T14:47:03.822Z,43.14
2022-12-04T14:49:48.950Z,43.95
2022-12-04T14:52:33.813Z,43.60
2022-12-04T14:55:18.689Z,43.63
2022-12-04T14:58:03.488Z,43.71
2022-12-04T15:00:48.471Z,44.04
2022-12-04T15:03:33.425Z,43.70
2022-12-04T15:06:18.785Z,43.87
2022-12-04T15:09:03.664Z,43.90
2022-12-04T15:11:48.431Z,44.41
2022-12-04T15:14:33.399Z,44.25
2022-12-04T15:17:18.357Z,43.99
2022-12-04T15:20:03.942Z,44.61
2022-12-04T15:22:49.177Z,44.06
2022-12-04T15:25:34.064Z,45.16
2022-12-04T15:28:18.968Z,44.63
2022-12-04T15:31:03.965Z,44.93
2022-12-04T15:33:48.867Z,45.08
2022-12-04T15:36:33.709Z,44.62
